createdAt,value
2017-09-20T00:00:42.542Z,11.2
2017-09-20T00:01:44.988Z,11.2
2017-09-20T00:02:47.424Z,11.3
2017-09-20T00:03:49.872Z,11.2
2017-09-20T00:04:52.315Z,11.2
2017-09-20T00:05:54.769Z,11.2
2017-09-20T00:06:57.209Z,11.2
2017-09-20T00:07:59.651Z,11.2
2017-09-20T00:09:02.095Z,11.3
2017-09-20T00:10:04.891Z,11.2
2017-09-20T00:11:07.338Z,11.2
2017-09-20T00:12:09.782Z,11.3
2017-09-20T00:13:12.217Z,11.2
2017-09-20T00:14:14.669Z,11.2
2017-09-20T00:15:17.114Z,11.2
2017-09-20T00:16:19.561Z,11.2
2017-09-20T00:17:22.343Z,11.2
2017-09-20T00:18:24.788Z,11.2
2017-09-20T00:19:27.233Z,11.2
2017-09-20T00:20:29.685Z,11.2
2017-09-20T00:21:32.467Z,11.2
2017-09-20T00:22:34.911Z,11.2
2017-09-20T00:23:37.354Z,11.2
2017-09-20T00:24:39.813Z,11.2
2017-09-20T00:25:42.265Z,11.2
2017-09-20T00:26:44.716Z,11.2
2017-09-20T00:27:47.163Z,11.3
2017-09-20T00:28:49.610Z,11.2
2017-09-20T00:29:52.053Z,11.2
2017-09-20T00:30:54.524Z,11.3
2017-09-20T00:31:57.291Z,11.3
2017-09-20T00:32:59.726Z,11.3
2017-09-20T00:34:02.171Z,11.3
2017-09-20T00:35:04.616Z,11.3
2017-09-20T00:36:07.069Z,11.3
2017-09-20T00:37:09.510Z,11.3
2017-09-20T00:38:11.959Z,11.3
2017-09-20T00:39:14.395Z,11.2
2017-09-20T00:40:16.848Z,11.3
2017-09-20T00:41:19.302Z,11.3
2017-09-20T00:42:21.745Z,11.3
2017-09-20T00:43:24.185Z,11.3
2017-09-20T00:44:26.630Z,11.3
2017-09-20T00:45:29.075Z,11.3
2017-09-20T00:46:31.531Z,11.2
2017-09-20T00:47:33.963Z,11.3
2017-09-20T00:48:36.414Z,11.3
2017-09-20T00:49:38.858Z,11.3
2017-09-20T00:50:41.302Z,11.3
2017-09-20T00:51:43.751Z,11.3
2017-09-20T00:52:46.193Z,11.2
2017-09-20T00:53:48.633Z,11.3
2017-09-20T00:54:51.081Z,11.3
2017-09-20T00:55:53.523Z,11.2
2017-09-20T00:56:55.966Z,11.2
2017-09-20T00:57:58.405Z,11.3
2017-09-20T00:59:00.850Z,11.3
2017-09-20T01:00:03.296Z,11.3
2017-09-20T01:01:05.743Z,11.3
2017-09-20T01:02:08.530Z,11.3
2017-09-20T01:03:10.980Z,11.3
2017-09-20T01:04:13.422Z,11.3
2017-09-20T01:05:15.879Z,11.3
2017-09-20T01:06:18.320Z,11.3
2017-09-20T01:07:20.763Z,11.3
2017-09-20T01:08:23.211Z,11.3
2017-09-20T01:09:25.997Z,11.3
2017-09-20T01:10:28.446Z,11.3
2017-09-20T01:11:30.889Z,11.3
2017-09-20T01:12:33.321Z,11.3
2017-09-20T01:13:35.772Z,11.3
2017-09-20T01:14:38.216Z,11.2
2017-09-20T01:15:40.661Z,11.3
2017-09-20T01:16:43.107Z,11.2
2017-09-20T01:17:45.555Z,11.2
2017-09-20T01:18:47.997Z,11.2
2017-09-20T01:19:50.450Z,11.2
2017-09-20T01:20:52.897Z,11.2
2017-09-20T01:21:55.337Z,11.3
2017-09-20T01:22:57.787Z,11.3
2017-09-20T01:24:00.245Z,11.3
2017-09-20T01:25:03.035Z,11.3
2017-09-20T01:26:05.481Z,11.3
2017-09-20T01:27:07.921Z,11.2
2017-09-20T01:28:10.369Z,11.2
2017-09-20T01:29:12.808Z,11.2
2017-09-20T01:30:15.251Z,11.3
2017-09-20T01:31:17.701Z,11.3
2017-09-20T01:32:20.142Z,11.2
2017-09-20T01:33:22.588Z,11.2
2017-09-20T01:34:25.039Z,11.2
2017-09-20T01:35:27.483Z,11.2
2017-09-20T01:36:29.931Z,11.2
2017-09-20T01:37:32.377Z,11.2
2017-09-20T01:38:34.820Z,11.2
2017-09-20T01:39:37.262Z,11.2
2017-09-20T01:40:39.701Z,11.2
2017-09-20T01:41:42.149Z,11.2
2017-09-20T01:42:44.597Z,11.2
2017-09-20T01:43:47.035Z,11.2
2017-09-20T01:44:49.834Z,11.1
2017-09-20T01:45:52.275Z,11.1
2017-09-20T01:46:55.061Z,11.1
2017-09-20T01:47:57.510Z,11.1
2017-09-20T01:48:59.954Z,11.1
2017-09-20T01:50:02.398Z,11.1
2017-09-20T01:51:04.844Z,11.1
2017-09-20T01:52:07.289Z,11.1
2017-09-20T01:53:09.730Z,11.1
2017-09-20T01:54:12.172Z,11.1
2017-09-20T01:55:14.630Z,11.1
2017-09-20T01:56:17.068Z,11.1
2017-09-20T01:57:19.510Z,11.1
2017-09-20T01:58:21.955Z,11.1
2017-09-20T01:59:24.394Z,11.1
2017-09-20T02:00:26.844Z,11.1
2017-09-20T02:01:29.297Z,11.1
2017-09-20T02:02:31.736Z,11.1
2017-09-20T02:03:34.186Z,11.1
2017-09-20T02:04:36.635Z,11.1
2017-09-20T02:05:39.078Z,11.1
2017-09-20T02:06:41.530Z,11.1
2017-09-20T02:07:44.655Z,11.1
2017-09-20T02:08:47.429Z,11.1
2017-09-20T02:09:49.878Z,11
2017-09-20T02:10:52.324Z,11
2017-09-20T02:11:54.766Z,11
2017-09-20T02:12:57.214Z,11
2017-09-20T02:13:59.663Z,11
2017-09-20T02:15:02.450Z,11
2017-09-20T02:16:04.905Z,11
2017-09-20T02:17:07.340Z,11
2017-09-20T02:18:09.783Z,11
2017-09-20T02:19:12.240Z,11
2017-09-20T02:20:14.680Z,11
2017-09-20T02:21:17.130Z,11
2017-09-20T02:22:19.577Z,11
2017-09-20T02:23:22.021Z,11
2017-09-20T02:24:24.463Z,11
2017-09-20T02:25:26.901Z,10.9
2017-09-20T02:26:29.339Z,11
2017-09-20T02:27:31.785Z,10.9
2017-09-20T02:28:34.218Z,10.9
2017-09-20T02:29:36.670Z,10.9
2017-09-20T02:30:39.120Z,10.9
2017-09-20T02:31:41.564Z,10.9
2017-09-20T02:32:44.014Z,10.9
2017-09-20T02:33:46.795Z,10.8
2017-09-20T02:34:49.242Z,10.8
2017-09-20T02:35:51.690Z,10.8
2017-09-20T02:36:54.130Z,10.8
2017-09-20T02:37:56.567Z,10.8
2017-09-20T02:38:59.014Z,10.8
2017-09-20T02:40:01.457Z,10.8
2017-09-20T02:41:03.899Z,10.8
2017-09-20T02:42:06.354Z,10.8
2017-09-20T02:43:09.488Z,10.8
2017-09-20T02:44:11.931Z,10.8
2017-09-20T02:45:14.376Z,10.8
2017-09-20T02:46:16.823Z,10.7
2017-09-20T02:47:19.267Z,10.7
2017-09-20T02:48:21.712Z,10.7
2017-09-20T02:49:24.153Z,10.7
2017-09-20T02:50:26.946Z,10.7
2017-09-20T02:51:29.388Z,10.6
2017-09-20T02:52:31.820Z,10.6
2017-09-20T02:53:34.270Z,10.6
2017-09-20T02:54:36.719Z,10.6
2017-09-20T02:55:39.165Z,10.6
2017-09-20T02:56:41.609Z,10.6
2017-09-20T02:57:44.052Z,10.6
2017-09-20T02:58:46.532Z,10.6
2017-09-20T02:59:48.946Z,10.6
2017-09-20T03:00:51.393Z,10.6
2017-09-20T03:01:53.837Z,10.6
2017-09-20T03:02:56.272Z,10.6
2017-09-20T03:03:58.720Z,10.6
2017-09-20T03:05:01.159Z,10.5
2017-09-20T03:06:03.600Z,10.5
2017-09-20T03:07:06.042Z,10.5
2017-09-20T03:08:08.486Z,10.5
2017-09-20T03:09:10.930Z,10.6
2017-09-20T03:10:13.383Z,10.5
2017-09-20T03:11:16.169Z,10.5
2017-09-20T03:12:18.613Z,10.5
2017-09-20T03:13:21.056Z,10.5
2017-09-20T03:14:23.495Z,10.5
2017-09-20T03:15:25.941Z,10.5
2017-09-20T03:16:28.384Z,10.5
2017-09-20T03:17:30.826Z,10.5
2017-09-20T03:18:33.279Z,10.5
2017-09-20T03:19:35.724Z,10.5
2017-09-20T03:20:38.171Z,10.5
2017-09-20T03:21:40.611Z,10.5
2017-09-20T03:22:43.058Z,10.5
2017-09-20T03:23:45.506Z,10.5
2017-09-20T03:24:47.951Z,10.5
2017-09-20T03:25:50.392Z,10.5
2017-09-20T03:26:53.213Z,10.5
2017-09-20T03:27:55.655Z,10.5
2017-09-20T03:28:58.106Z,10.4
2017-09-20T03:30:00.902Z,10.4
2017-09-20T03:31:03.354Z,10.4
2017-09-20T03:32:06.147Z,10.4
2017-09-20T03:33:08.589Z,10.4
2017-09-20T03:34:11.026Z,10.4
2017-09-20T03:35:13.471Z,10.4
2017-09-20T03:36:15.915Z,10.4
2017-09-20T03:37:18.363Z,10.4
2017-09-20T03:38:20.806Z,10.4
2017-09-20T03:39:23.254Z,10.4
2017-09-20T03:40:25.688Z,10.5
2017-09-20T03:41:28.133Z,10.5
2017-09-20T03:42:30.578Z,10.4
2017-09-20T03:43:33.024Z,10.4
2017-09-20T03:44:35.469Z,10.4
2017-09-20T03:45:37.919Z,10.5
2017-09-20T03:46:40.384Z,10.4
2017-09-20T03:47:42.810Z,10.4
2017-09-20T03:48:45.255Z,10.4
2017-09-20T03:49:47.705Z,10.4
2017-09-20T03:50:50.143Z,10.4
2017-09-20T03:51:52.586Z,10.5
2017-09-20T03:52:55.029Z,10.5
2017-09-20T03:53:57.465Z,10.5
2017-09-20T03:54:59.911Z,10.5
2017-09-20T03:56:02.358Z,10.5
2017-09-20T03:57:04.794Z,10.4
2017-09-20T03:58:07.624Z,10.5
2017-09-20T03:59:10.067Z,10.5
2017-09-20T04:00:12.502Z,10.5
2017-09-20T04:01:14.960Z,10.5
2017-09-20T04:02:17.400Z,10.5
2017-09-20T04:03:19.843Z,10.5
2017-09-20T04:04:22.291Z,10.4
2017-09-20T04:05:24.741Z,10.4
2017-09-20T04:06:27.190Z,10.5
2017-09-20T04:07:29.664Z,10.5
2017-09-20T04:08:32.075Z,10.5
2017-09-20T04:09:34.518Z,10.5
2017-09-20T04:10:36.961Z,10.5
2017-09-20T04:11:39.401Z,10.5
2017-09-20T04:12:41.838Z,10.5
2017-09-20T04:13:44.287Z,10.6
2017-09-20T04:14:46.727Z,10.6
2017-09-20T04:15:49.181Z,10.6
2017-09-20T04:16:51.625Z,10.6
2017-09-20T04:17:54.068Z,10.6
2017-09-20T04:18:56.510Z,10.6
2017-09-20T04:19:58.960Z,10.6
2017-09-20T04:21:01.405Z,10.6
2017-09-20T04:22:03.845Z,10.6
2017-09-20T04:23:06.297Z,10.6
2017-09-20T04:24:08.745Z,10.6
2017-09-20T04:25:11.184Z,10.6
2017-09-20T04:26:13.629Z,10.6
2017-09-20T04:27:16.084Z,10.6
2017-09-20T04:28:18.524Z,10.6
2017-09-20T04:29:20.964Z,10.6
2017-09-20T04:30:23.412Z,10.7
2017-09-20T04:31:25.850Z,10.7
2017-09-20T04:32:28.302Z,10.7
2017-09-20T04:33:30.746Z,10.7
2017-09-20T04:34:33.180Z,10.7
2017-09-20T04:35:35.970Z,10.7
2017-09-20T04:36:38.420Z,10.7
2017-09-20T04:37:40.864Z,10.7
2017-09-20T04:38:43.312Z,10.7
2017-09-20T04:39:45.751Z,10.8
2017-09-20T04:40:48.199Z,10.8
2017-09-20T04:41:50.651Z,10.8
2017-09-20T04:42:53.093Z,10.8
2017-09-20T04:43:55.535Z,10.8
2017-09-20T04:44:57.979Z,10.8
2017-09-20T04:46:00.423Z,10.8
2017-09-20T04:47:02.871Z,10.8
2017-09-20T04:48:05.313Z,10.8
2017-09-20T04:49:07.748Z,10.8
2017-09-20T04:50:10.195Z,10.8
2017-09-20T04:51:12.991Z,10.9
2017-09-20T04:52:15.791Z,10.9
2017-09-20T04:53:18.233Z,10.9
2017-09-20T04:54:20.675Z,10.9
2017-09-20T04:55:23.112Z,10.9
2017-09-20T04:56:25.894Z,10.9
2017-09-20T04:57:28.335Z,10.9
2017-09-20T04:58:30.788Z,10.9
2017-09-20T04:59:33.225Z,10.9
2017-09-20T05:00:35.678Z,10.9
2017-09-20T05:01:38.122Z,10.9
2017-09-20T05:02:40.581Z,10.9
2017-09-20T05:03:43.028Z,10.9
2017-09-20T05:04:45.478Z,10.9
2017-09-20T05:05:47.916Z,10.9
2017-09-20T05:06:50.368Z,10.9
2017-09-20T05:07:52.810Z,10.9
2017-09-20T05:08:55.254Z,10.9
2017-09-20T05:09:58.037Z,10.9
2017-09-20T05:11:00.482Z,11
2017-09-20T05:12:02.925Z,11
2017-09-20T05:13:05.381Z,11
2017-09-20T05:14:07.812Z,11
2017-09-20T05:15:10.265Z,11
2017-09-20T05:16:12.709Z,11
2017-09-20T05:17:15.502Z,11
2017-09-20T05:18:17.945Z,11
2017-09-20T05:19:20.390Z,11
2017-09-20T05:20:22.829Z,11.1
2017-09-20T05:21:25.287Z,11.1
2017-09-20T05:22:27.731Z,11.1
2017-09-20T05:23:30.178Z,11.1
2017-09-20T05:24:32.615Z,11.1
2017-09-20T05:25:35.051Z,11.1
2017-09-20T05:26:37.502Z,11.1
2017-09-20T05:27:40.286Z,11.1
2017-09-20T05:28:42.731Z,11.1
2017-09-20T05:29:45.514Z,11.1
2017-09-20T05:30:47.958Z,11.1
2017-09-20T05:31:50.756Z,11.1
2017-09-20T05:32:53.561Z,11.1
2017-09-20T05:33:56.004Z,11.1
2017-09-20T05:34:58.448Z,11.1
2017-09-20T05:36:00.898Z,11.2
2017-09-20T05:37:03.338Z,11.2
2017-09-20T05:38:05.788Z,11.2
2017-09-20T05:39:08.568Z,11.2
2017-09-20T05:40:11.004Z,11.2
2017-09-20T05:41:13.460Z,11.2
2017-09-20T05:42:15.899Z,11.2
2017-09-20T05:43:18.343Z,11.2
2017-09-20T05:44:20.787Z,11.2
2017-09-20T05:45:23.238Z,11.3
2017-09-20T05:46:25.687Z,11.3
2017-09-20T05:47:28.143Z,11.3
2017-09-20T05:48:30.918Z,11.3
2017-09-20T05:49:33.363Z,11.3
2017-09-20T05:50:35.821Z,11.3
2017-09-20T05:51:38.263Z,11.3
2017-09-20T05:52:40.721Z,11.4
2017-09-20T05:53:43.161Z,11.3
2017-09-20T05:54:45.612Z,11.3
2017-09-20T05:55:48.049Z,11.4
2017-09-20T05:56:50.494Z,11.4
2017-09-20T05:57:52.942Z,11.4
2017-09-20T05:58:55.387Z,11.5
2017-09-20T05:59:57.824Z,11.4
2017-09-20T06:01:00.612Z,11.5
2017-09-20T06:02:03.057Z,11.5
2017-09-20T06:03:05.516Z,11.5
2017-09-20T06:04:08.296Z,11.5
2017-09-20T06:05:10.734Z,11.5
2017-09-20T06:06:13.186Z,11.5
2017-09-20T06:07:15.632Z,11.5
2017-09-20T06:08:18.079Z,11.5
2017-09-20T06:09:20.523Z,11.5
2017-09-20T06:10:22.970Z,11.6
2017-09-20T06:11:25.775Z,11.6
2017-09-20T06:12:28.229Z,11.6
2017-09-20T06:13:30.666Z,11.6
2017-09-20T06:14:33.121Z,11.6
2017-09-20T06:15:35.564Z,11.6
2017-09-20T06:16:38.013Z,11.7
2017-09-20T06:17:40.460Z,11.7
2017-09-20T06:18:42.904Z,11.7
2017-09-20T06:19:45.347Z,11.7
2017-09-20T06:20:47.786Z,11.7
2017-09-20T06:21:50.583Z,11.7
2017-09-20T06:22:53.025Z,11.8
2017-09-20T06:23:55.467Z,11.8
2017-09-20T06:24:57.910Z,11.8
2017-09-20T06:26:00.350Z,11.8
2017-09-20T06:27:02.790Z,11.8
2017-09-20T06:28:05.247Z,11.9
2017-09-20T06:29:07.682Z,11.9
2017-09-20T06:30:10.135Z,11.9
2017-09-20T06:31:12.581Z,11.9
2017-09-20T06:32:15.028Z,11.9
2017-09-20T06:33:17.478Z,11.9
2017-09-20T06:34:19.923Z,11.9
2017-09-20T06:35:22.364Z,11.9
2017-09-20T06:36:24.808Z,12
2017-09-20T06:37:27.254Z,12
2017-09-20T06:38:29.686Z,12
2017-09-20T06:39:32.140Z,12
2017-09-20T06:40:34.929Z,12
2017-09-20T06:41:37.370Z,12
2017-09-20T06:42:39.814Z,12.1
2017-09-20T06:43:42.258Z,12.1
2017-09-20T06:44:44.721Z,12.1
2017-09-20T06:45:47.509Z,12.1
2017-09-20T06:46:50.295Z,12.2
2017-09-20T06:47:52.743Z,12.2
2017-09-20T06:48:55.187Z,12.2
2017-09-20T06:49:57.634Z,12.2
2017-09-20T06:51:00.081Z,12.3
2017-09-20T06:52:02.520Z,12.3
2017-09-20T06:53:04.973Z,12.3
2017-09-20T06:54:07.421Z,12.3
2017-09-20T06:55:09.880Z,12.3
2017-09-20T06:56:12.335Z,12.3
2017-09-20T06:57:14.799Z,12.3
2017-09-20T06:58:17.241Z,12.3
2017-09-20T06:59:20.043Z,12.4
2017-09-20T07:00:22.482Z,12.4
2017-09-20T07:01:25.272Z,12.4
2017-09-20T07:02:27.729Z,12.4
2017-09-20T07:03:30.163Z,12.5
2017-09-20T07:04:32.613Z,12.5
2017-09-20T07:05:35.062Z,12.5
2017-09-20T07:06:37.506Z,12.5
2017-09-20T07:07:39.946Z,12.6
2017-09-20T07:08:42.397Z,12.6
2017-09-20T07:09:44.848Z,12.7
2017-09-20T07:10:47.299Z,12.7
2017-09-20T07:11:49.747Z,12.8
2017-09-20T07:12:52.187Z,12.8
2017-09-20T07:13:54.647Z,12.8
2017-09-20T07:14:57.094Z,12.9
2017-09-20T07:15:59.538Z,12.9
2017-09-20T07:17:01.991Z,12.9
2017-09-20T07:18:05.130Z,12.9
2017-09-20T07:19:07.576Z,12.9
2017-09-20T07:20:10.032Z,13
2017-09-20T07:21:12.826Z,12.9
2017-09-20T07:22:15.275Z,12.9
2017-09-20T07:23:17.718Z,12.9
2017-09-20T07:24:20.168Z,13
2017-09-20T07:25:22.615Z,13
2017-09-20T07:26:25.078Z,13.1
2017-09-20T07:27:27.516Z,13.1
2017-09-20T07:28:29.969Z,13.1
2017-09-20T07:29:32.418Z,13.1
2017-09-20T07:30:34.866Z,13.1
2017-09-20T07:31:37.665Z,13.1
2017-09-20T07:32:40.118Z,13.1
2017-09-20T07:33:42.896Z,13.2
2017-09-20T07:34:45.351Z,13.3
2017-09-20T07:35:47.800Z,13.3
2017-09-20T07:36:50.260Z,13.4
2017-09-20T07:37:52.700Z,13.4
2017-09-20T07:38:55.495Z,13.5
2017-09-20T07:39:58.286Z,13.5
2017-09-20T07:41:00.740Z,13.5
2017-09-20T07:42:03.535Z,13.6
2017-09-20T07:43:05.986Z,13.5
2017-09-20T07:44:08.434Z,13.4
2017-09-20T07:45:10.884Z,13.4
2017-09-20T07:46:13.331Z,13.4
2017-09-20T07:47:15.786Z,13.4
2017-09-20T07:48:18.236Z,13.4
2017-09-20T07:49:20.682Z,13.4
2017-09-20T07:50:23.173Z,13.3
2017-09-20T07:51:25.619Z,13.3
2017-09-20T07:52:28.410Z,13.3
2017-09-20T07:53:30.869Z,13.3
2017-09-20T07:54:33.324Z,13.3
2017-09-20T07:55:36.140Z,13.3
2017-09-20T07:56:38.587Z,13.3
2017-09-20T07:57:41.036Z,13.2
2017-09-20T07:58:43.480Z,13.1
2017-09-20T07:59:45.948Z,13.1
2017-09-20T08:00:48.399Z,13.1
2017-09-20T08:01:50.843Z,13.1
2017-09-20T08:02:53.295Z,13
2017-09-20T08:03:55.747Z,13
2017-09-20T08:04:58.195Z,13
2017-09-20T08:06:00.650Z,13
2017-09-20T08:07:03.090Z,13.1
2017-09-20T08:08:05.539Z,13
2017-09-20T08:09:07.986Z,13
2017-09-20T08:10:10.432Z,13
2017-09-20T08:11:12.870Z,13.1
2017-09-20T08:12:15.325Z,13
2017-09-20T08:13:17.787Z,13.1
2017-09-20T08:14:20.232Z,13.1
2017-09-20T08:15:23.030Z,13.1
2017-09-20T08:16:25.484Z,13.1
2017-09-20T08:17:27.931Z,13.1
2017-09-20T08:18:30.392Z,13.2
2017-09-20T08:19:32.833Z,13.1
2017-09-20T08:20:35.629Z,13.1
2017-09-20T08:21:38.074Z,13.1
2017-09-20T08:22:40.528Z,13.2
2017-09-20T08:23:42.973Z,13.1
2017-09-20T08:24:45.427Z,13.2
2017-09-20T08:25:47.880Z,13.2
2017-09-20T08:26:50.321Z,13.2
2017-09-20T08:27:52.776Z,13.2
2017-09-20T08:28:55.226Z,13.2
2017-09-20T08:29:57.673Z,13.2
2017-09-20T08:31:00.125Z,13.3
2017-09-20T08:32:02.919Z,13.3
2017-09-20T08:33:05.372Z,13.3
2017-09-20T08:34:07.820Z,13.3
2017-09-20T08:35:10.257Z,13.3
2017-09-20T08:36:12.707Z,13.3
2017-09-20T08:37:15.163Z,13.4
2017-09-20T08:38:17.608Z,13.4
2017-09-20T08:39:20.052Z,13.4
2017-09-20T08:40:22.542Z,13.5
2017-09-20T08:41:24.945Z,13.4
2017-09-20T08:42:27.402Z,13.5
2017-09-20T08:43:29.850Z,13.5
2017-09-20T08:44:32.283Z,13.4
2017-09-20T08:45:34.735Z,13.4
2017-09-20T08:46:37.184Z,13.4
2017-09-20T08:47:39.632Z,13.4
2017-09-20T08:48:42.075Z,13.4
2017-09-20T08:49:44.534Z,13.4
2017-09-20T08:50:46.982Z,13.4
2017-09-20T08:51:49.423Z,13.4
2017-09-20T08:52:51.872Z,13.4
2017-09-20T08:53:54.320Z,13.4
2017-09-20T08:54:56.773Z,13.4
2017-09-20T08:55:59.215Z,13.4
2017-09-20T08:57:01.658Z,13.4
2017-09-20T08:58:04.796Z,13.4
2017-09-20T08:59:07.254Z,13.4
2017-09-20T09:00:09.715Z,13.5
2017-09-20T09:01:12.164Z,13.5
2017-09-20T09:02:14.610Z,13.5
2017-09-20T09:03:17.064Z,13.5
2017-09-20T09:04:19.510Z,13.6
2017-09-20T09:05:22.309Z,13.5
2017-09-20T09:06:24.755Z,13.5
2017-09-20T09:07:27.204Z,13.5
2017-09-20T09:08:29.651Z,13.5
2017-09-20T09:09:34.059Z,13.5
2017-09-20T09:10:36.986Z,13.5
2017-09-20T09:11:39.436Z,13.5
2017-09-20T09:12:42.601Z,13.5
2017-09-20T09:13:46.302Z,13.5
2017-09-20T09:14:48.751Z,13.5
2017-09-20T09:15:52.164Z,13.5
2017-09-20T09:16:54.943Z,13.5
2017-09-20T09:17:57.407Z,13.5
2017-09-20T09:18:59.845Z,13.5
2017-09-20T09:20:02.664Z,13.5
2017-09-20T09:21:05.114Z,13.5
2017-09-20T09:22:07.564Z,13.5
2017-09-20T09:23:11.002Z,13.4
2017-09-20T09:24:15.873Z,13.4
2017-09-20T09:25:19.731Z,13.4
2017-09-20T09:26:24.258Z,13.4
2017-09-20T09:27:28.060Z,13.4
2017-09-20T09:28:31.910Z,13.4
2017-09-20T09:29:34.843Z,13.4
2017-09-20T09:30:37.635Z,13.3
2017-09-20T09:31:41.021Z,13.4
2017-09-20T09:32:44.216Z,13.3
2017-09-20T09:33:46.664Z,13.3
2017-09-20T09:34:50.054Z,13.2
2017-09-20T09:35:52.501Z,13.2
2017-09-20T09:36:54.952Z,13.2
2017-09-20T09:37:57.478Z,13.1
2017-09-20T09:38:59.984Z,13.1
2017-09-20T09:40:03.853Z,13.1
2017-09-20T09:41:06.665Z,13
2017-09-20T09:42:10.427Z,13
2017-09-20T09:43:12.932Z,13
2017-09-20T09:44:18.715Z,13
2017-09-20T09:45:22.164Z,13
2017-09-20T09:46:25.019Z,13
2017-09-20T09:47:27.808Z,13
2017-09-20T09:48:30.252Z,13
2017-09-20T09:49:32.701Z,13
2017-09-20T09:50:35.514Z,13.1
2017-09-20T09:51:37.969Z,13.1
2017-09-20T09:52:40.423Z,13.3
2017-09-20T09:53:42.872Z,13.4
2017-09-20T09:54:45.319Z,13.4
2017-09-20T09:55:47.768Z,13.4
2017-09-20T09:56:50.211Z,13.5
2017-09-20T09:57:52.665Z,13.5
2017-09-20T09:58:55.100Z,13.6
2017-09-20T09:59:57.549Z,13.8
2017-09-20T10:01:00.002Z,14
2017-09-20T10:02:02.450Z,14
2017-09-20T10:03:04.898Z,14.1
2017-09-20T10:04:07.686Z,14.1
2017-09-20T10:05:10.131Z,14.2
2017-09-20T10:06:12.934Z,14.1
2017-09-20T10:07:15.375Z,14.2
2017-09-20T10:08:17.823Z,14.1
2017-09-20T10:09:20.625Z,14.1
2017-09-20T10:10:23.074Z,14.1
2017-09-20T10:11:25.525Z,14.1
2017-09-20T10:12:28.327Z,14.2
2017-09-20T10:13:30.770Z,14.2
2017-09-20T10:14:33.212Z,14.2
2017-09-20T10:15:35.667Z,14.2
2017-09-20T10:16:38.473Z,14
2017-09-20T10:17:40.917Z,14
2017-09-20T10:18:43.369Z,13.9
2017-09-20T10:19:45.823Z,13.9
2017-09-20T10:20:48.271Z,13.9
2017-09-20T10:21:50.721Z,13.9
2017-09-20T10:22:53.172Z,13.8
2017-09-20T10:23:55.613Z,13.8
2017-09-20T10:24:58.070Z,13.7
2017-09-20T10:26:00.516Z,13.7
2017-09-20T10:27:02.960Z,13.7
2017-09-20T10:28:05.402Z,13.7
2017-09-20T10:29:07.852Z,13.7
2017-09-20T10:30:10.305Z,13.7
2017-09-20T10:31:13.098Z,13.7
2017-09-20T10:32:15.550Z,13.7
2017-09-20T10:33:17.993Z,13.7
2017-09-20T10:34:20.446Z,13.7
2017-09-20T10:35:22.899Z,13.6
2017-09-20T10:36:25.342Z,13.7
2017-09-20T10:37:27.791Z,13.7
2017-09-20T10:38:30.584Z,13.7
2017-09-20T10:39:33.031Z,13.7
2017-09-20T10:40:35.484Z,13.8
2017-09-20T10:41:37.927Z,13.8
2017-09-20T10:42:40.718Z,13.8
2017-09-20T10:43:43.172Z,13.8
2017-09-20T10:44:45.619Z,13.8
2017-09-20T10:45:48.067Z,13.8
2017-09-20T10:46:50.515Z,13.9
2017-09-20T10:47:53.333Z,13.9
2017-09-20T10:48:56.119Z,13.9
2017-09-20T10:49:58.568Z,14
2017-09-20T10:51:01.022Z,14
2017-09-20T10:52:03.465Z,14
2017-09-20T10:53:05.909Z,14.1
2017-09-20T10:54:08.713Z,14.1
2017-09-20T10:55:11.157Z,14.1
2017-09-20T10:56:13.612Z,14.1
2017-09-20T10:57:16.403Z,14.1
2017-09-20T10:58:18.842Z,14.1
2017-09-20T10:59:21.292Z,14.1
2017-09-20T11:00:23.749Z,14.1
2017-09-20T11:01:26.197Z,14.1
2017-09-20T11:02:28.649Z,14.1
2017-09-20T11:03:31.426Z,14.2
2017-09-20T11:04:33.877Z,14.3
2017-09-20T11:05:36.338Z,14.3
2017-09-20T11:06:39.133Z,14.3
2017-09-20T11:07:41.574Z,14.4
2017-09-20T11:08:44.023Z,14.4
2017-09-20T11:09:46.472Z,14.5
2017-09-20T11:10:48.926Z,14.6
2017-09-20T11:11:51.370Z,14.7
2017-09-20T11:12:53.816Z,14.8
2017-09-20T11:13:56.265Z,14.9
2017-09-20T11:14:58.721Z,15
2017-09-20T11:16:01.165Z,15
2017-09-20T11:17:03.609Z,15
2017-09-20T11:18:06.058Z,14.9
2017-09-20T11:19:08.503Z,14.9
2017-09-20T11:20:11.298Z,14.9
2017-09-20T11:21:13.752Z,15
2017-09-20T11:22:16.531Z,15
2017-09-20T11:23:18.990Z,14.9
2017-09-20T11:24:21.449Z,15
2017-09-20T11:25:24.263Z,15.1
2017-09-20T11:26:26.715Z,15.1
2017-09-20T11:27:29.157Z,15.1
2017-09-20T11:28:31.643Z,15.1
2017-09-20T11:29:34.101Z,15.1
2017-09-20T11:30:36.550Z,15.1
2017-09-20T11:31:38.994Z,15.1
2017-09-20T11:32:41.449Z,15.1
2017-09-20T11:33:43.896Z,15.1
2017-09-20T11:34:46.352Z,15.1
2017-09-20T11:35:48.805Z,15.1
2017-09-20T11:36:51.248Z,15.1
2017-09-20T11:37:53.788Z,15.1
2017-09-20T11:38:57.364Z,15.1
2017-09-20T11:39:59.810Z,15.1
2017-09-20T11:41:02.280Z,15.1
2017-09-20T11:42:04.725Z,15
2017-09-20T11:43:08.436Z,15
2017-09-20T11:44:11.747Z,15.1
2017-09-20T11:45:14.196Z,15
2017-09-20T11:46:16.638Z,15.1
2017-09-20T11:47:19.432Z,15
2017-09-20T11:48:21.891Z,15.1
2017-09-20T11:49:24.683Z,15.4
2017-09-20T11:50:27.174Z,15.6
2017-09-20T11:51:29.702Z,15.7
2017-09-20T11:52:32.157Z,15.8
2017-09-20T11:53:34.609Z,15.8
2017-09-20T11:54:37.070Z,15.9
2017-09-20T11:55:39.515Z,16.1
2017-09-20T11:56:41.970Z,16.2
2017-09-20T11:57:44.764Z,16.3
2017-09-20T11:58:47.214Z,16.3
2017-09-20T11:59:49.667Z,16.4
2017-09-20T12:00:52.119Z,16.3
2017-09-20T12:01:54.568Z,16.3
2017-09-20T12:02:57.029Z,16.2
2017-09-20T12:03:59.820Z,16.2
2017-09-20T12:05:02.269Z,16.1
2017-09-20T12:06:05.404Z,16.1
2017-09-20T12:07:07.863Z,16.1
2017-09-20T12:08:10.312Z,16.2
2017-09-20T12:09:12.795Z,16
2017-09-20T12:10:15.237Z,15.9
2017-09-20T12:11:17.697Z,15.9
2017-09-20T12:12:20.152Z,15.9
2017-09-20T12:13:22.607Z,15.8
2017-09-20T12:14:25.060Z,15.9
2017-09-20T12:15:27.507Z,15.7
2017-09-20T12:16:30.301Z,15.6
2017-09-20T12:17:32.758Z,15.6
2017-09-20T12:18:35.210Z,15.5
2017-09-20T12:19:37.670Z,15.5
2017-09-20T12:20:40.142Z,15.4
2017-09-20T12:21:42.778Z,15.4
2017-09-20T12:22:45.575Z,15.5
2017-09-20T12:23:48.032Z,15.5
2017-09-20T12:24:50.483Z,15.6
2017-09-20T12:25:53.298Z,15.5
2017-09-20T12:26:55.749Z,15.6
2017-09-20T12:27:58.200Z,15.6
2017-09-20T12:29:00.656Z,15.6
2017-09-20T12:30:03.114Z,15.6
2017-09-20T12:31:05.557Z,15.7
2017-09-20T12:32:08.009Z,15.7
2017-09-20T12:33:10.845Z,15.7
2017-09-20T12:34:13.337Z,15.6
2017-09-20T12:35:15.778Z,15.6
2017-09-20T12:36:18.587Z,15.6
2017-09-20T12:37:21.038Z,15.6
2017-09-20T12:38:23.534Z,15.6
2017-09-20T12:39:26.341Z,15.6
2017-09-20T12:40:28.788Z,15.5
2017-09-20T12:41:31.242Z,15.4
2017-09-20T12:42:33.698Z,15.3
2017-09-20T12:43:36.154Z,15.3
2017-09-20T12:44:38.615Z,15.4
2017-09-20T12:45:41.061Z,15.4
2017-09-20T12:46:43.503Z,15.4
2017-09-20T12:47:45.958Z,15.4
2017-09-20T12:48:48.757Z,15.4
2017-09-20T12:49:51.210Z,15.4
2017-09-20T12:50:53.665Z,15.4
2017-09-20T12:51:56.113Z,15.3
2017-09-20T12:52:58.567Z,15.3
2017-09-20T12:54:01.018Z,15.3
2017-09-20T12:55:03.875Z,15.2
2017-09-20T12:56:06.333Z,15.2
2017-09-20T12:57:09.150Z,15.3
2017-09-20T12:58:12.001Z,15.3
2017-09-20T12:59:14.837Z,15.3
2017-09-20T13:00:17.638Z,15.3
2017-09-20T13:01:20.424Z,15.3
2017-09-20T13:02:22.888Z,15.4
2017-09-20T13:03:25.354Z,15.4
2017-09-20T13:04:27.803Z,15.6
2017-09-20T13:05:30.601Z,15.7
2017-09-20T13:06:33.050Z,15.8
2017-09-20T13:07:36.201Z,15.9
2017-09-20T13:08:38.654Z,16.2
2017-09-20T13:09:41.148Z,16.5
2017-09-20T13:10:43.579Z,16.8
2017-09-20T13:11:46.383Z,17
2017-09-20T13:12:48.837Z,17.3
2017-09-20T13:13:51.294Z,17.4
2017-09-20T13:14:53.748Z,17.4
2017-09-20T13:15:56.203Z,17.3
2017-09-20T13:16:58.760Z,17.2
2017-09-20T13:18:01.287Z,17.2
2017-09-20T13:19:03.751Z,17.1
2017-09-20T13:20:06.204Z,17.1
2017-09-20T13:21:08.658Z,17
2017-09-20T13:22:11.108Z,17.1
2017-09-20T13:23:13.561Z,16.8
2017-09-20T13:24:16.378Z,16.8
2017-09-20T13:25:18.832Z,16.9
2017-09-20T13:26:21.278Z,16.8
2017-09-20T13:27:24.102Z,16.7
2017-09-20T13:28:26.562Z,16.6
2017-09-20T13:29:29.366Z,16.6
2017-09-20T13:30:31.821Z,16.5
2017-09-20T13:31:34.620Z,16.5
2017-09-20T13:32:37.075Z,16.4
2017-09-20T13:33:39.532Z,16.3
2017-09-20T13:34:41.990Z,16.4
2017-09-20T13:35:44.446Z,16.3
2017-09-20T13:36:46.896Z,16.3
2017-09-20T13:37:49.698Z,16.3
2017-09-20T13:38:52.500Z,16.2
2017-09-20T13:39:54.957Z,16.1
2017-09-20T13:40:57.419Z,15.9
2017-09-20T13:41:59.872Z,15.8
2017-09-20T13:43:02.328Z,15.7
2017-09-20T13:44:04.789Z,15.7
2017-09-20T13:45:07.236Z,15.7
2017-09-20T13:46:10.054Z,15.7
2017-09-20T13:47:12.510Z,15.6
2017-09-20T13:48:14.966Z,15.6
2017-09-20T13:49:17.418Z,15.6
2017-09-20T13:50:19.883Z,15.5
2017-09-20T13:51:22.332Z,15.4
2017-09-20T13:52:24.787Z,15.4
2017-09-20T13:53:27.596Z,15.4
2017-09-20T13:54:30.050Z,15.4
2017-09-20T13:55:32.499Z,15.3
2017-09-20T13:56:34.951Z,15.3
2017-09-20T13:57:38.085Z,15.4